Terminal Aerodrome Forecast
Issued by NWS Sterling, VA

Current Version | Previous Version | Graphics & Text | Print | Product List | Glossary Off
Versions: 1 2 3 4 5 6 7 8 9 10 11 12 13 14 15 16 17 18

000
FTUS41 KLWX 290800 AAA
TAFMRB
TAF AMD
KMRB 290805Z 2908/3006 00000KT P6SM SCT050 OVC090
      TEMPO 2908/2909 2SM -SN OVC025
     FM291400 15006KT P6SM BKN090=

USA.gov is the U.S. government's official web portal to all federal, state and local government web resources and services.